createdAt,value
2023-05-07T00:02:18.785Z,41.90
2023-05-07T00:04:46.537Z,41.92
2023-05-07T00:07:13.566Z,42.20
2023-05-07T00:09:40.991Z,42.07
2023-05-07T00:12:08.516Z,42.05
2023-05-07T00:14:35.417Z,42.28
2023-05-07T00:17:02.415Z,42.07
2023-05-07T00:19:29.398Z,42.22
2023-05-07T00:21:57.033Z,42.14
2023-05-07T00:24:23.946Z,42.26
2023-05-07T00:26:51.428Z,42.40
2023-05-07T00:29:18.484Z,42.06
2023-05-07T00:31:45.477Z,42.33
2023-05-07T00:34:12.422Z,42.14
2023-05-07T00:36:39.469Z,42.40
2023-05-07T00:39:06.491Z,42.46
2023-05-07T00:41:33.445Z,42.39
2023-05-07T00:44:00.334Z,42.71
2023-05-07T00:46:27.505Z,42.65
2023-05-07T00:48:54.596Z,42.69
2023-05-07T00:51:21.586Z,42.59
2023-05-07T00:53:48.981Z,42.24
2023-05-07T00:56:16.233Z,42.62
2023-05-07T00:58:43.275Z,42.51
2023-05-07T01:01:10.371Z,42.36
2023-05-07T01:03:37.510Z,42.48
2023-05-07T01:06:06.023Z,42.33
2023-05-07T01:08:36.734Z,42.68
2023-05-07T01:11:04.801Z,42.56
2023-05-07T01:13:32.164Z,42.47
2023-05-07T01:15:59.171Z,42.53
2023-05-07T01:18:26.903Z,42.64
2023-05-07T01:20:54.022Z,42.80
2023-05-07T01:23:21.236Z,42.86
2023-05-07T01:25:55.111Z,42.93
2023-05-07T01:28:23.609Z,42.98
2023-05-07T01:30:56.849Z,43.05
2023-05-07T01:33:24.473Z,43.21
2023-05-07T01:35:54.225Z,43.56
2023-05-07T01:38:22.703Z,43.58
2023-05-07T01:40:49.654Z,43.45
2023-05-07T01:43:16.670Z,43.32
2023-05-07T01:45:43.832Z,43.38
2023-05-07T01:48:11.531Z,43.70
2023-05-07T01:50:38.589Z,43.78
2023-05-07T01:53:05.503Z,43.79
2023-05-07T01:55:32.565Z,43.85
2023-05-07T01:57:59.630Z,43.99
2023-05-07T02:00:26.770Z,44.13
2023-05-07T02:02:54.301Z,44.09
2023-05-07T02:05:29.744Z,44.26
2023-05-07T02:08:01.484Z,44.22
2023-05-07T02:10:29.193Z,44.27
2023-05-07T02:12:56.325Z,44.47
2023-05-07T02:15:23.342Z,44.64
2023-05-07T02:18:04.938Z,44.86
2023-05-07T02:20:32.424Z,44.83
2023-05-07T02:22:59.364Z,45.03
2023-05-07T02:25:26.700Z,44.86
2023-05-07T02:27:53.776Z,45.03
2023-05-07T02:30:23.317Z,45.41
2023-05-07T02:32:51.986Z,45.19
2023-05-07T02:35:19.126Z,45.34
2023-05-07T02:37:46.124Z,45.43
2023-05-07T02:40:14.271Z,45.57
2023-05-07T02:42:41.350Z,45.57
2023-05-07T02:45:09.326Z,45.50
2023-05-07T02:47:36.655Z,45.57
2023-05-07T02:50:04.726Z,45.46
2023-05-07T02:52:32.025Z,45.52
2023-05-07T02:54:59.246Z,45.55
2023-05-07T02:57:26.174Z,45.77
2023-05-07T02:59:53.142Z,45.75
2023-05-07T03:02:21.405Z,45.78
2023-05-07T03:04:48.378Z,45.90
2023-05-07T03:07:15.603Z,45.63
2023-05-07T03:09:42.589Z,45.48
2023-05-07T03:12:09.629Z,45.66
2023-05-07T03:14:36.594Z,45.52
2023-05-07T03:17:03.577Z,45.69
2023-05-07T03:19:31.745Z,45.78
2023-05-07T03:21:59.023Z,45.92
2023-05-07T03:26:53.128Z,46.11
2023-05-07T03:29:21.048Z,46.25
2023-05-07T03:31:48.204Z,46.02
2023-05-07T03:34:15.260Z,46.43
2023-05-07T03:36:42.290Z,46.44
2023-05-07T03:39:10.067Z,46.64
2023-05-07T03:41:39.650Z,46.71
2023-05-07T03:44:07.112Z,46.90
2023-05-07T03:46:34.934Z,46.57
2023-05-07T03:49:02.065Z,46.37
2023-05-07T03:51:29.660Z,46.65
2023-05-07T03:53:58.316Z,46.68
2023-05-07T03:56:27.844Z,46.72
2023-05-07T03:58:55.689Z,46.74
2023-05-07T04:01:22.654Z,47.08
2023-05-07T04:03:49.737Z,47.15
2023-05-07T04:06:18.534Z,47.15
2023-05-07T04:08:46.643Z,47.00
2023-05-07T04:11:14.468Z,47.08
2023-05-07T04:13:41.509Z,47.04
2023-05-07T04:16:09.416Z,46.73
2023-05-07T04:18:37.257Z,46.82
2023-05-07T04:21:04.941Z,46.50
2023-05-07T04:23:32.073Z,46.39
2023-05-07T04:26:01.968Z,46.45
2023-05-07T04:28:40.721Z,46.59
2023-05-07T04:31:07.770Z,46.66
2023-05-07T04:33:38.416Z,46.54
2023-05-07T04:36:06.949Z,46.73
2023-05-07T04:38:39.909Z,46.73
2023-05-07T04:41:07.593Z,47.19
2023-05-07T04:43:36.955Z,47.01
2023-05-07T04:46:03.965Z,47.09
2023-05-07T04:48:31.400Z,46.88
2023-05-07T04:50:58.686Z,46.85
2023-05-07T04:53:25.945Z,47.02
2023-05-07T04:55:59.433Z,46.97
2023-05-07T04:58:32.920Z,47.15
2023-05-07T05:01:02.314Z,46.77
2023-05-07T05:03:31.117Z,46.99
2023-05-07T05:06:01.036Z,46.81
2023-05-07T05:08:32.240Z,46.34
2023-05-07T05:10:59.799Z,46.19
2023-05-07T05:13:26.875Z,46.50
2023-05-07T05:15:53.996Z,46.56
2023-05-07T05:18:21.765Z,46.46
2023-05-07T05:20:48.932Z,46.91
2023-05-07T05:23:16.181Z,47.18
2023-05-07T05:25:43.272Z,47.00
2023-05-07T05:28:14.768Z,46.80
2023-05-07T05:30:44.141Z,46.69
2023-05-07T05:33:11.256Z,46.59
2023-05-07T05:35:39.014Z,46.55
2023-05-07T05:38:07.745Z,46.39
2023-05-07T05:40:34.928Z,46.79
2023-05-07T05:43:02.095Z,46.89
2023-05-07T05:45:29.570Z,46.73
2023-05-07T05:47:57.820Z,46.65
2023-05-07T05:50:24.945Z,46.17
2023-05-07T05:52:52.782Z,46.15
2023-05-07T05:55:20.133Z,46.10
2023-05-07T05:57:47.376Z,46.18
2023-05-07T06:00:14.815Z,46.07
2023-05-07T06:02:48.411Z,46.13
2023-05-07T06:05:19.936Z,45.31
2023-05-07T06:07:47.815Z,44.94
2023-05-07T06:10:15.934Z,44.19
2023-05-07T06:12:43.071Z,43.77
2023-05-07T06:15:10.778Z,44.13
2023-05-07T06:17:39.587Z,43.98
2023-05-07T06:20:08.187Z,43.66
2023-05-07T06:22:35.429Z,43.34
2023-05-07T06:25:02.942Z,43.43
2023-05-07T06:27:29.934Z,42.91
2023-05-07T06:29:57.426Z,42.42
2023-05-07T06:32:24.498Z,42.61
2023-05-07T06:34:52.046Z,42.23
2023-05-07T06:37:19.451Z,41.65
2023-05-07T06:39:54.176Z,41.35
2023-05-07T06:42:21.230Z,41.17
2023-05-07T06:44:49.104Z,40.54
2023-05-07T06:47:17.664Z,40.25
2023-05-07T06:49:46.937Z,40.40
2023-05-07T06:52:16.729Z,40.58
2023-05-07T06:54:43.837Z,39.99
2023-05-07T06:57:11.461Z,39.54
2023-05-07T06:59:38.506Z,39.54
2023-05-07T07:02:05.607Z,39.21
2023-05-07T07:04:32.630Z,39.14
2023-05-07T07:07:02.832Z,38.82
2023-05-07T07:09:30.120Z,37.42
2023-05-07T07:11:57.974Z,37.72
2023-05-07T07:14:26.833Z,38.12
2023-05-07T07:16:54.115Z,38.05
2023-05-07T07:19:21.533Z,38.02
2023-05-07T07:21:49.968Z,38.11
2023-05-07T07:24:20.401Z,37.76
2023-05-07T07:26:48.869Z,37.07
2023-05-07T07:29:15.948Z,36.55
2023-05-07T07:31:43.606Z,36.55
2023-05-07T07:34:11.385Z,36.16
2023-05-07T07:36:46.139Z,36.15
2023-05-07T07:39:15.939Z,35.91
2023-05-07T07:41:43.437Z,36.28
2023-05-07T07:44:15.941Z,36.13
2023-05-07T07:46:46.512Z,35.71
2023-05-07T07:49:14.166Z,35.37
2023-05-07T07:51:41.919Z,35.05
2023-05-07T07:54:10.574Z,34.67
2023-05-07T07:56:37.886Z,34.02
2023-05-07T07:59:06.025Z,33.79
2023-05-07T08:01:33.880Z,34.37
2023-05-07T08:04:01.515Z,34.07
2023-05-07T08:06:29.045Z,33.88
2023-05-07T08:08:56.436Z,33.92
2023-05-07T08:11:23.564Z,33.67
2023-05-07T08:13:51.451Z,33.36
2023-05-07T08:16:19.069Z,33.26
2023-05-07T08:18:46.350Z,33.59
2023-05-07T08:21:13.766Z,33.67
2023-05-07T08:23:42.487Z,33.78
2023-05-07T08:26:09.782Z,33.64
2023-05-07T08:28:37.073Z,34.05
2023-05-07T08:31:05.335Z,33.95
2023-05-07T08:33:35.519Z,34.04
2023-05-07T08:36:02.478Z,33.87
2023-05-07T08:38:33.555Z,34.30
2023-05-07T08:41:00.813Z,34.58
2023-05-07T08:43:29.859Z,34.14
2023-05-07T08:45:56.839Z,34.61
2023-05-07T08:48:26.519Z,34.12
2023-05-07T08:51:21.361Z,33.30
2023-05-07T08:53:49.473Z,33.57
2023-05-07T08:56:22.510Z,33.18
2023-05-07T08:58:50.156Z,33.14
2023-05-07T09:01:17.905Z,33.25
2023-05-07T09:03:47.059Z,33.16
2023-05-07T09:06:15.138Z,33.14
2023-05-07T09:08:43.053Z,32.61
2023-05-07T09:11:11.696Z,32.59
2023-05-07T09:13:39.052Z,32.75
2023-05-07T09:16:13.313Z,32.65
2023-05-07T09:18:43.265Z,32.33
2023-05-07T09:21:18.747Z,32.09
2023-05-07T09:23:46.576Z,32.00
2023-05-07T09:26:14.352Z,31.91
2023-05-07T09:28:44.857Z,31.76
2023-05-07T09:31:13.395Z,31.46
2023-05-07T09:33:40.783Z,31.60
2023-05-07T09:36:10.190Z,31.86
2023-05-07T09:38:38.561Z,31.72
2023-05-07T09:41:23.745Z,31.53
2023-05-07T09:43:58.924Z,31.07
2023-05-07T09:46:31.562Z,30.94
2023-05-07T09:49:02.709Z,31.39
2023-05-07T09:51:40.888Z,31.39
2023-05-07T09:54:07.882Z,31.64
2023-05-07T09:56:35.539Z,30.93
2023-05-07T09:59:03.154Z,30.80
2023-05-07T10:01:32.292Z,31.01
2023-05-07T10:03:59.996Z,31.20
2023-05-07T10:06:28.368Z,31.35
2023-05-07T10:08:55.726Z,31.04
2023-05-07T10:11:23.186Z,30.93
2023-05-07T10:13:50.537Z,31.05
2023-05-07T10:16:17.473Z,31.46
2023-05-07T10:18:49.477Z,31.42
2023-05-07T10:21:21.065Z,31.49
2023-05-07T10:23:59.533Z,31.57
2023-05-07T10:26:27.366Z,31.59
2023-05-07T10:28:59.798Z,31.42
2023-05-07T10:31:31.078Z,30.89
2023-05-07T10:33:58.289Z,30.87
2023-05-07T10:36:26.369Z,30.88
2023-05-07T10:38:53.642Z,30.71
2023-05-07T10:41:22.230Z,30.54
2023-05-07T10:43:49.830Z,30.66
2023-05-07T10:46:23.920Z,30.25
2023-05-07T10:49:07.433Z,29.88
2023-05-07T10:51:41.915Z,30.31
2023-05-07T10:54:21.317Z,29.79
2023-05-07T10:56:57.054Z,29.38
2023-05-07T10:59:32.778Z,29.54
2023-05-07T11:02:07.681Z,29.55
2023-05-07T11:05:23.753Z,29.80
2023-05-07T11:08:23.192Z,30.10
2023-05-07T11:11:08.311Z,30.16
2023-05-07T11:13:52.511Z,29.43
2023-05-07T11:16:39.783Z,29.39
2023-05-07T11:19:18.708Z,29.84
2023-05-07T11:21:49.556Z,30.03
2023-05-07T11:24:41.018Z,29.89
2023-05-07T11:27:08.463Z,29.73
2023-05-07T11:29:35.513Z,29.59
2023-05-07T11:32:12.011Z,29.95
2023-05-07T11:34:58.462Z,30.42
2023-05-07T11:37:26.413Z,30.08
2023-05-07T11:40:12.116Z,30.04
2023-05-07T11:42:43.853Z,29.93
2023-05-07T11:45:11.426Z,29.84
2023-05-07T11:47:38.971Z,29.70
2023-05-07T11:50:08.743Z,29.74
2023-05-07T11:52:36.136Z,29.48
2023-05-07T11:55:04.748Z,29.07
2023-05-07T11:57:31.841Z,28.79
2023-05-07T11:59:59.676Z,28.92
2023-05-07T12:02:27.166Z,28.72
2023-05-07T12:04:54.765Z,28.77
2023-05-07T12:07:21.858Z,29.08
2023-05-07T12:09:49.052Z,28.98
2023-05-07T12:12:18.439Z,28.85
2023-05-07T12:14:46.204Z,28.17
2023-05-07T12:17:14.468Z,28.58
2023-05-07T12:19:42.902Z,28.32
2023-05-07T12:22:12.927Z,27.89
2023-05-07T12:24:50.984Z,27.47
2023-05-07T12:27:18.345Z,27.57
2023-05-07T12:29:48.635Z,27.71
2023-05-07T12:32:17.468Z,27.64
2023-05-07T12:34:45.760Z,27.93
2023-05-07T12:37:16.753Z,27.73
2023-05-07T12:39:50.542Z,27.43
2023-05-07T12:42:18.308Z,27.52
2023-05-07T12:44:46.850Z,27.27
2023-05-07T12:47:14.005Z,27.38
2023-05-07T12:49:41.271Z,27.56
2023-05-07T12:52:08.292Z,27.55
2023-05-07T12:54:36.500Z,27.53
2023-05-07T12:57:04.847Z,27.77
2023-05-07T12:59:39.805Z,27.74
2023-05-07T13:02:06.976Z,27.59
2023-05-07T13:04:35.163Z,27.44
2023-05-07T13:07:02.271Z,26.76
2023-05-07T13:09:32.644Z,26.99
2023-05-07T13:12:02.697Z,27.12
2023-05-07T13:14:29.928Z,27.04
2023-05-07T13:16:56.876Z,26.64
2023-05-07T13:19:23.857Z,26.30
2023-05-07T13:21:51.023Z,26.51
2023-05-07T13:24:18.158Z,26.56
2023-05-07T13:26:46.088Z,27.10
2023-05-07T13:29:13.375Z,27.23
2023-05-07T13:31:44.332Z,27.05
2023-05-07T13:34:11.733Z,26.69
2023-05-07T13:36:41.702Z,26.47
2023-05-07T13:39:10.233Z,26.54
2023-05-07T13:41:37.181Z,26.92
2023-05-07T13:44:04.301Z,27.53
2023-05-07T13:46:31.430Z,27.27
2023-05-07T13:48:58.466Z,27.45
2023-05-07T13:51:25.749Z,27.69
2023-05-07T13:53:53.714Z,27.39
2023-05-07T13:56:21.360Z,27.22
2023-05-07T13:58:59.545Z,27.24
2023-05-07T14:01:27.923Z,27.57
2023-05-07T14:03:55.146Z,27.75
2023-05-07T14:06:22.957Z,27.83
2023-05-07T14:08:50.142Z,27.55
2023-05-07T14:11:17.230Z,27.94
2023-05-07T14:13:44.265Z,27.51
2023-05-07T14:16:11.204Z,27.42
2023-05-07T14:18:39.794Z,27.84
2023-05-07T14:21:10.997Z,27.96
2023-05-07T14:23:37.984Z,27.60
2023-05-07T14:26:05.092Z,27.60
2023-05-07T14:28:32.522Z,27.75
2023-05-07T14:30:59.609Z,27.79
2023-05-07T14:33:26.673Z,27.76
2023-05-07T14:35:53.788Z,27.40
2023-05-07T14:38:21.165Z,27.49
2023-05-07T14:40:48.436Z,27.51
2023-05-07T14:43:15.451Z,27.74
2023-05-07T14:45:42.906Z,27.35
2023-05-07T14:48:13.547Z,27.40
2023-05-07T14:50:40.723Z,27.31
2023-05-07T14:53:08.124Z,27.79
2023-05-07T14:55:35.970Z,27.65
2023-05-07T14:58:02.965Z,27.65
2023-05-07T15:00:29.954Z,27.71
2023-05-07T15:03:09.028Z,27.74
2023-05-07T15:05:36.554Z,28.08
2023-05-07T15:08:03.694Z,27.80
2023-05-07T15:10:30.946Z,27.57
2023-05-07T15:12:58.852Z,28.00
2023-05-07T15:15:25.944Z,28.29
2023-05-07T15:17:53.371Z,28.36
2023-05-07T15:20:20.560Z,28.50
2023-05-07T15:22:47.670Z,28.96
2023-05-07T15:25:15.051Z,29.19
2023-05-07T15:27:42.420Z,29.31
2023-05-07T15:30:11.410Z,29.38
2023-05-07T15:32:39.440Z,29.51
2023-05-07T15:35:06.895Z,29.52
2023-05-07T15:37:34.766Z,29.67
2023-05-07T15:40:03.614Z,30.03
2023-05-07T15:42:30.992Z,30.26
2023-05-07T15:44:58.459Z,30.39
2023-05-07T15:47:25.478Z,30.38
2023-05-07T15:49:53.025Z,30.42
2023-05-07T15:52:20.088Z,30.35
2023-05-07T15:54:47.337Z,30.43
2023-05-07T15:57:14.405Z,30.37
2023-05-07T15:59:42.114Z,30.60
2023-05-07T16:02:09.281Z,30.75
2023-05-07T16:04:36.875Z,30.98
2023-05-07T16:07:04.116Z,31.01
2023-05-07T16:09:31.242Z,30.93
2023-05-07T16:11:58.214Z,31.11
2023-05-07T16:14:25.317Z,31.00
2023-05-07T16:16:54.532Z,31.08
2023-05-07T16:19:23.424Z,31.12
2023-05-07T16:21:50.531Z,31.13
2023-05-07T16:24:17.788Z,31.08
2023-05-07T16:26:45.104Z,31.15
2023-05-07T16:29:12.141Z,31.24
2023-05-07T16:31:39.513Z,31.52
2023-05-07T16:34:06.576Z,31.67
2023-05-07T16:36:33.796Z,31.70
2023-05-07T16:39:00.881Z,31.72
2023-05-07T16:41:27.933Z,31.67
2023-05-07T16:43:54.905Z,31.71
2023-05-07T16:46:21.949Z,31.80
2023-05-07T16:48:48.976Z,31.89
2023-05-07T16:51:15.921Z,32.03
2023-05-07T16:53:42.921Z,32.34
2023-05-07T16:56:09.918Z,32.32
2023-05-07T16:58:36.837Z,32.25
2023-05-07T17:01:04.198Z,32.19
2023-05-07T17:03:32.377Z,32.23
2023-05-07T17:05:59.639Z,32.56
2023-05-07T17:08:26.736Z,32.40
2023-05-07T17:10:53.682Z,32.31
2023-05-07T17:13:20.797Z,32.46
2023-05-07T17:15:47.958Z,32.59
2023-05-07T17:18:15.163Z,32.62
2023-05-07T17:20:42.154Z,32.64
2023-05-07T17:23:09.150Z,32.93
2023-05-07T17:25:37.236Z,33.14
2023-05-07T17:28:04.877Z,33.28
2023-05-07T17:30:32.826Z,33.26
2023-05-07T17:33:09.324Z,33.22
2023-05-07T17:35:44.307Z,33.41
2023-05-07T17:38:11.205Z,33.41
2023-05-07T17:40:38.343Z,33.72
2023-05-07T17:43:05.335Z,33.76
2023-05-07T17:45:33.165Z,33.91
2023-05-07T17:48:00.206Z,33.95
2023-05-07T17:50:27.330Z,34.06
2023-05-07T17:52:54.322Z,34.13
2023-05-07T17:55:21.461Z,34.20
2023-05-07T17:57:48.434Z,34.27
2023-05-07T18:00:16.281Z,34.31
2023-05-07T18:02:43.326Z,34.43
2023-05-07T18:05:10.669Z,34.38
2023-05-07T18:07:37.641Z,34.40
2023-05-07T18:10:04.906Z,34.54
2023-05-07T18:12:32.046Z,34.60
2023-05-07T18:14:59.017Z,34.61
2023-05-07T18:17:27.054Z,34.75
2023-05-07T18:19:55.125Z,34.68
2023-05-07T18:22:22.714Z,34.78
2023-05-07T18:24:50.007Z,34.83
2023-05-07T18:27:17.216Z,34.77
2023-05-07T18:29:44.249Z,35.02
2023-05-07T18:32:12.148Z,35.08
2023-05-07T18:34:39.509Z,35.13
2023-05-07T18:37:06.569Z,35.18
2023-05-07T18:39:35.894Z,35.26
2023-05-07T18:42:05.311Z,35.34
2023-05-07T18:44:33.406Z,35.28
2023-05-07T18:47:00.727Z,35.36
2023-05-07T18:49:27.812Z,35.43
2023-05-07T18:51:54.880Z,35.53
2023-05-07T18:54:21.840Z,35.47
2023-05-07T18:56:49.241Z,35.43
2023-05-07T18:59:16.356Z,35.39
2023-05-07T19:01:43.769Z,35.67
2023-05-07T19:04:10.930Z,35.48
2023-05-07T19:06:38.052Z,35.32
2023-05-07T19:09:05.539Z,35.58
2023-05-07T19:11:32.637Z,35.32
2023-05-07T19:14:01.678Z,35.52
2023-05-07T19:16:30.806Z,35.44
2023-05-07T19:18:58.067Z,35.79
2023-05-07T19:21:25.246Z,35.94
2023-05-07T19:23:53.840Z,35.74
2023-05-07T19:26:21.432Z,35.95
2023-05-07T19:29:01.405Z,35.96
2023-05-07T19:31:36.391Z,36.35
2023-05-07T19:34:03.443Z,36.29
2023-05-07T19:36:33.473Z,36.33
2023-05-07T19:39:00.489Z,36.27
2023-05-07T19:41:28.868Z,36.55
2023-05-07T19:43:55.939Z,36.49
2023-05-07T19:46:23.007Z,36.70
2023-05-07T19:48:51.321Z,36.68
2023-05-07T19:51:18.374Z,36.72
2023-05-07T19:53:46.018Z,36.83
2023-05-07T19:56:13.110Z,36.96
2023-05-07T19:58:40.060Z,36.98
2023-05-07T20:01:07.392Z,36.83
2023-05-07T20:03:34.718Z,36.80
2023-05-07T20:06:02.806Z,36.81
2023-05-07T20:08:29.905Z,36.69
2023-05-07T20:10:58.116Z,36.86
2023-05-07T20:13:26.733Z,37.16
2023-05-07T20:16:00.487Z,37.17
2023-05-07T20:18:28.212Z,36.95
2023-05-07T20:20:55.287Z,37.12
2023-05-07T20:23:22.265Z,37.32
2023-05-07T20:25:50.483Z,37.28
2023-05-07T20:28:17.404Z,37.64
2023-05-07T20:30:44.385Z,37.37
2023-05-07T20:33:11.456Z,37.43
2023-05-07T20:35:38.525Z,37.58
2023-05-07T20:38:05.742Z,37.53
2023-05-07T20:40:34.644Z,37.51
2023-05-07T20:43:03.571Z,37.78
2023-05-07T20:45:30.576Z,37.98
2023-05-07T20:47:57.642Z,38.01
2023-05-07T20:50:25.276Z,38.05
2023-05-07T20:52:52.497Z,38.06
2023-05-07T20:55:19.483Z,38.14
2023-05-07T20:57:46.565Z,38.04
2023-05-07T21:00:14.208Z,38.11
2023-05-07T21:02:41.628Z,38.26
2023-05-07T21:05:08.795Z,38.47
2023-05-07T21:07:35.739Z,38.24
2023-05-07T21:10:02.815Z,38.26
2023-05-07T21:12:29.784Z,38.00
2023-05-07T21:14:56.883Z,38.05
2023-05-07T21:17:23.875Z,38.05
2023-05-07T21:19:51.311Z,38.29
2023-05-07T21:22:18.244Z,38.13
2023-05-07T21:24:45.292Z,38.26
2023-05-07T21:27:12.268Z,38.28
2023-05-07T21:29:39.726Z,38.33
2023-05-07T21:32:06.851Z,38.33
2023-05-07T21:34:33.804Z,38.36
2023-05-07T21:37:00.728Z,38.26
2023-05-07T21:39:27.696Z,38.42
2023-05-07T21:41:54.655Z,38.67
2023-05-07T21:44:21.973Z,38.66
2023-05-07T21:46:49.052Z,38.64
2023-05-07T21:49:16.032Z,38.88
2023-05-07T21:51:43.037Z,38.94
2023-05-07T21:54:10.872Z,38.93
2023-05-07T21:56:37.845Z,39.21
2023-05-07T21:59:04.814Z,39.21
2023-05-07T22:01:31.752Z,39.31
2023-05-07T22:03:58.849Z,39.44
2023-05-07T22:06:25.902Z,39.32
2023-05-07T22:08:53.024Z,39.33
2023-05-07T22:11:20.007Z,39.57
2023-05-07T22:13:46.981Z,39.63
2023-05-07T22:16:13.977Z,39.65
2023-05-07T22:18:41.065Z,39.42
2023-05-07T22:21:08.002Z,39.54
2023-05-07T22:23:34.969Z,39.70
2023-05-07T22:26:01.991Z,39.80
2023-05-07T22:28:28.992Z,39.73
2023-05-07T22:30:55.936Z,39.71
2023-05-07T22:33:22.998Z,40.11
2023-05-07T22:35:49.953Z,40.16
2023-05-07T22:38:16.914Z,39.96
2023-05-07T22:40:43.883Z,39.71
2023-05-07T22:43:10.798Z,39.74
2023-05-07T22:45:37.832Z,39.82
2023-05-07T22:48:05.207Z,40.00
2023-05-07T22:50:36.817Z,39.87
2023-05-07T22:53:04.356Z,39.81
2023-05-07T22:55:31.595Z,40.01
2023-05-07T22:57:58.529Z,39.91
2023-05-07T23:00:25.584Z,39.93
2023-05-07T23:02:52.716Z,40.07
2023-05-07T23:05:20.679Z,40.02
2023-05-07T23:07:47.601Z,40.05
2023-05-07T23:10:14.661Z,39.95
2023-05-07T23:12:42.077Z,40.10
2023-05-07T23:15:09.380Z,40.17
2023-05-07T23:17:36.341Z,39.98
2023-05-07T23:20:03.448Z,40.27
2023-05-07T23:22:30.594Z,40.35
2023-05-07T23:24:57.511Z,40.42
2023-05-07T23:27:24.482Z,40.28
2023-05-07T23:29:51.671Z,40.01
2023-05-07T23:32:18.595Z,40.07
2023-05-07T23:34:50.267Z,40.17
2023-05-07T23:37:17.235Z,40.31
2023-05-07T23:39:44.195Z,40.27
2023-05-07T23:42:11.121Z,40.39
2023-05-07T23:44:38.072Z,40.46
2023-05-07T23:47:05.008Z,40.31
2023-05-07T23:49:32.016Z,40.39
2023-05-07T23:51:59.311Z,40.34
2023-05-07T23:54:26.289Z,40.35
2023-05-07T23:56:53.276Z,40.46
2023-05-07T23:59:20.301Z,40.48
